Aérodrome :
LOGIN :

S'inscrire | Disclaimer

   EN    FR    IT 

 










Légende :    VFR   VFR Marginal   IFR   IFR Intensif   IFR Très Intensif
Visi : 
Plafond : 
>= 8 km
>= 3000ft
5 à 8 km
1000 à 3000 ft
1500m à 5 km
500 à 1000 ft
800 à 1500m
200 à 500 ft
< 800m
< 200 ft
Symboles :   Orages  Brouillard  Fortes neiges  Fortes précipitations  Vent > 20 kt
SIGMETs :   Divers  Orages  Givrage  Turbulence  Onde Orograph.  Cendres Volcan.







- Altitude de l'aérodrome : 33 ft
- Code IATA : MHZ


EGUN - RAF Mildenhall

DERNIER METAR :
  • 130456Z AUTO 13011KT 9999 OVC039 05/01 A3005 RMK AO2 SLP180 T00490012 $

METARs EXPIRÉS :
  • 130356Z AUTO 12010KT 9999 OVC035 05/02 A3006 RMK AO2 SLP183 T00490017 $
  • 130256Z AUTO 11012KT 9999 OVC035 05/03 A3007 RMK AO2 SLP186 T00470027 57010 $

TAF TAF EGUN
Valide du 13 à 04h jusqu'au 14 à 10h UTC


1304/1410 11012G20KT 9999 BKN020 620204 QNH3005INS
BECMG 1309/1310 11015G25KT 9999 BKN020 620204 QNH3006INS
BECMG 1314/1315 10012G20KT 9999 BKN020 620204 QNH3007INS
BECMG 1323/1324 09012KT 9999 BKN015 620155 QNH3017INS TX06/1314Z TN03/1400Z
Pas de NOTAMs connus pour ce terrain.
1 SIGMET publié pour la FIR London (EGTT) :
 
Turbulence forte
EGTT SIGMET 01 VALID 130330/130700 EGRR
EGTT LONDON FIR SEV TURB FCST W OF LINE N5500 W00400 - N4923 W00510 SFC/FL060 STNR WKN=



MET'MAP, la Météo Aéronautique d'un coup d'oeil ! - Copyright ORBIFLY Décembre 2007 - Disclaimer

ORBIFLY MET'MAP TEAM :

Programmation & Développement : Alexandra Zaïnal
Conception & Développement : Baudouin d'Aumeries
Co-Programmation & Développement : Marc-Olivier Méhu
Soutien technique & logistique : Manuel Goepfert

Contact : metmap@orbifly.com




SOURCES & CREDITS :

   NOAA